Terminal Aerodrome Forecast
Issued by NWS

Home | Current Version | Previous Version | Text Only | Print | Product List | Glossary On
Versions: 1 2 3 4 5 6 7 8 9 10 11 12 13 14 15 16 17 18 19 20 21
927
FTUS44 KMOB 111739
TAFBFM
TAF
KBFM 111739Z 1118/1218 21011G20KT P6SM SKC
     FM120000 21006KT P6SM SCT250
     FM120700 VRB05KT 5SM BR SCT010
     FM120800 VRB05KT 1SM BR BKN010
     FM121600 27010KT P6SM SCT015 SCT250=

USA.gov is the U.S. government's official web portal to all federal, state and local government web resources and services.